createdAt,value
2017-10-19T00:00:06.610Z,1005.71
2017-10-19T00:01:06.603Z,1005.67
2017-10-19T00:02:06.610Z,1005.70
2017-10-19T00:03:06.593Z,1005.67
2017-10-19T00:04:06.589Z,1005.71
2017-10-19T00:05:27.590Z,1005.69
2017-10-19T00:06:06.576Z,1005.70
2017-10-19T00:07:06.569Z,1005.70
2017-10-19T00:08:06.569Z,1005.71
2017-10-19T00:09:06.564Z,1005.69
2017-10-19T00:10:06.558Z,1005.73
2017-10-19T00:11:27.553Z,1005.70
2017-10-19T00:12:06.546Z,1005.72
2017-10-19T00:13:06.539Z,1005.70
2017-10-19T00:14:06.538Z,1005.70
2017-10-19T00:15:06.538Z,1005.69
2017-10-19T00:16:06.522Z,1005.68
2017-10-19T00:17:27.524Z,1005.68
2017-10-19T00:18:06.514Z,1005.68
2017-10-19T00:19:06.507Z,1005.69
2017-10-19T00:20:06.502Z,1005.71
2017-10-19T00:21:06.492Z,1005.71
2017-10-19T00:22:06.495Z,1005.68
2017-10-19T00:23:27.491Z,1005.70
2017-10-19T00:24:06.481Z,1005.73
2017-10-19T00:25:06.471Z,1005.71
2017-10-19T00:26:06.466Z,1005.75
2017-10-19T00:27:06.463Z,1005.73
2017-10-19T00:28:06.456Z,1005.73
2017-10-19T00:29:27.459Z,1005.75
2017-10-19T00:30:06.445Z,1005.77
2017-10-19T00:31:06.439Z,1005.76
2017-10-19T00:32:06.434Z,1005.77
2017-10-19T00:33:06.434Z,1005.74
2017-10-19T00:34:06.421Z,1005.73
2017-10-19T00:35:27.422Z,1005.69
2017-10-19T00:36:06.410Z,1005.71
2017-10-19T00:37:06.407Z,1005.72
2017-10-19T00:38:06.399Z,1005.73
2017-10-19T00:39:06.394Z,1005.72
2017-10-19T00:40:06.389Z,1005.71
2017-10-19T00:41:27.410Z,1005.70
2017-10-19T00:42:06.375Z,1005.70
2017-10-19T00:43:06.371Z,1005.72
2017-10-19T00:44:06.369Z,1005.68
2017-10-19T00:45:06.360Z,1005.65
2017-10-19T00:46:06.367Z,1005.66
2017-10-19T00:47:27.354Z,1005.69
2017-10-19T00:48:06.352Z,1005.61
2017-10-19T00:49:06.338Z,1005.68
2017-10-19T00:50:06.342Z,1005.67
2017-10-19T00:51:06.334Z,1005.69
2017-10-19T00:52:06.320Z,1005.67
2017-10-19T00:53:27.319Z,1005.68
2017-10-19T00:54:06.324Z,1005.68
2017-10-19T00:55:06.293Z,1005.64
2017-10-19T00:56:06.294Z,1005.60
2017-10-19T00:57:06.289Z,1005.59
2017-10-19T00:58:06.286Z,1005.59
2017-10-19T00:59:27.286Z,1005.60
2017-10-19T01:00:06.273Z,1005.55
2017-10-19T01:01:06.269Z,1005.60
2017-10-19T01:02:06.268Z,1005.55
2017-10-19T01:03:06.258Z,1005.57
2017-10-19T01:04:06.251Z,1005.54
2017-10-19T01:05:27.252Z,1005.54
2017-10-19T01:06:06.239Z,1005.58
2017-10-19T01:07:06.235Z,1005.54
2017-10-19T01:08:06.246Z,1005.52
2017-10-19T01:09:06.221Z,1005.50
2017-10-19T01:10:06.232Z,1005.54
2017-10-19T01:11:27.216Z,1005.53
2017-10-19T01:12:06.206Z,1005.53
2017-10-19T01:13:06.202Z,1005.54
2017-10-19T01:14:06.237Z,1005.50
2017-10-19T01:15:06.188Z,1005.54
2017-10-19T01:16:06.177Z,1005.58
2017-10-19T01:17:27.182Z,1005.57
2017-10-19T01:18:06.167Z,1005.51
2017-10-19T01:19:06.164Z,1005.52
2017-10-19T01:20:06.161Z,1005.56
2017-10-19T01:21:06.154Z,1005.58
2017-10-19T01:22:06.148Z,1005.53
2017-10-19T01:23:27.159Z,1005.47
2017-10-19T01:24:06.134Z,1005.50
2017-10-19T01:25:06.129Z,1005.54
2017-10-19T01:26:06.124Z,1005.48
2017-10-19T01:27:06.123Z,1005.51
2017-10-19T01:28:06.114Z,1005.44
2017-10-19T01:29:27.112Z,1005.47
2017-10-19T01:30:06.100Z,1005.42
2017-10-19T01:31:06.096Z,1005.42
2017-10-19T01:32:06.090Z,1005.38
2017-10-19T01:33:06.083Z,1005.34
2017-10-19T01:34:06.075Z,1005.39
2017-10-19T01:35:27.077Z,1005.36
2017-10-19T01:36:06.067Z,1005.36
2017-10-19T01:37:06.063Z,1005.37
2017-10-19T01:38:06.054Z,1005.35
2017-10-19T01:39:06.047Z,1005.30
2017-10-19T01:40:06.043Z,1005.30
2017-10-19T01:41:27.072Z,1005.30
2017-10-19T01:42:06.031Z,1005.30
2017-10-19T01:43:06.025Z,1005.27
2017-10-19T01:44:06.024Z,1005.27
2017-10-19T01:45:06.012Z,1005.27
2017-10-19T01:46:06.006Z,1005.20
2017-10-19T01:47:27.008Z,1005.22
2017-10-19T01:48:05.994Z,1005.19
2017-10-19T01:49:05.986Z,1005.17
2017-10-19T01:50:06.013Z,1005.17
2017-10-19T01:51:05.977Z,1005.17
2017-10-19T01:52:05.969Z,1005.21
2017-10-19T01:53:26.971Z,1005.23
2017-10-19T01:54:05.959Z,1005.25
2017-10-19T01:55:05.952Z,1005.29
2017-10-19T01:56:05.947Z,1005.22
2017-10-19T01:57:05.934Z,1005.20
2017-10-19T01:58:05.932Z,1005.23
2017-10-19T01:59:26.931Z,1005.24
2017-10-19T02:00:05.926Z,1005.21
2017-10-19T02:01:05.917Z,1005.25
2017-10-19T02:02:05.911Z,1005.26
2017-10-19T02:03:05.905Z,1005.26
2017-10-19T02:04:05.900Z,1005.26
2017-10-19T02:05:26.902Z,1005.29
2017-10-19T02:06:05.891Z,1005.30
2017-10-19T02:07:05.881Z,1005.27
2017-10-19T02:08:05.880Z,1005.29
2017-10-19T02:09:05.867Z,1005.29
2017-10-19T02:10:05.864Z,1005.28
2017-10-19T02:11:26.867Z,1005.28
2017-10-19T02:12:05.862Z,1005.32
2017-10-19T02:13:05.845Z,1005.31
2017-10-19T02:14:05.839Z,1005.33
2017-10-19T02:15:05.835Z,1005.29
2017-10-19T02:16:05.852Z,1005.30
2017-10-19T02:17:26.839Z,1005.28
2017-10-19T02:18:05.815Z,1005.28
2017-10-19T02:19:05.813Z,1005.30
2017-10-19T02:20:05.805Z,1005.31
2017-10-19T02:21:05.798Z,1005.28
2017-10-19T02:22:05.796Z,1005.31
2017-10-19T02:23:26.793Z,1005.34
2017-10-19T02:24:05.785Z,1005.25
2017-10-19T02:25:05.777Z,1005.28
2017-10-19T02:26:05.772Z,1005.30
2017-10-19T02:27:05.763Z,1005.31
2017-10-19T02:28:05.772Z,1005.31
2017-10-19T02:29:26.763Z,1005.29
2017-10-19T02:30:05.746Z,1005.30
2017-10-19T02:31:05.742Z,1005.30
2017-10-19T02:32:05.735Z,1005.34
2017-10-19T02:33:05.728Z,1005.28
2017-10-19T02:34:05.722Z,1005.37
2017-10-19T02:35:26.727Z,1005.30
2017-10-19T02:36:05.711Z,1005.34
2017-10-19T02:37:05.704Z,1005.35
2017-10-19T02:38:05.697Z,1005.33
2017-10-19T02:39:05.690Z,1005.33
2017-10-19T02:40:05.683Z,1005.37
2017-10-19T02:41:26.684Z,1005.33
2017-10-19T02:42:05.673Z,1005.32
2017-10-19T02:43:05.666Z,1005.34
2017-10-19T02:44:05.656Z,1005.37
2017-10-19T02:45:05.655Z,1005.33
2017-10-19T02:46:05.647Z,1005.35
2017-10-19T02:47:26.648Z,1005.29
2017-10-19T02:48:05.635Z,1005.32
2017-10-19T02:49:05.628Z,1005.36
2017-10-19T02:50:05.625Z,1005.33
2017-10-19T02:51:05.616Z,1005.34
2017-10-19T02:52:06.158Z,1005.33
2017-10-19T02:53:26.613Z,1005.33
2017-10-19T02:54:05.598Z,1005.37
2017-10-19T02:55:05.595Z,1005.33
2017-10-19T02:56:06.193Z,1005.37
2017-10-19T02:57:05.583Z,1005.34
2017-10-19T02:58:05.577Z,1005.31
2017-10-19T02:59:26.572Z,1005.33
2017-10-19T03:00:05.563Z,1005.31
2017-10-19T03:01:05.556Z,1005.33
2017-10-19T03:02:05.552Z,1005.33
2017-10-19T03:03:05.545Z,1005.33
2017-10-19T03:04:05.540Z,1005.37
2017-10-19T03:05:26.541Z,1005.32
2017-10-19T03:06:05.527Z,1005.37
2017-10-19T03:07:05.529Z,1005.38
2017-10-19T03:08:05.513Z,1005.39
2017-10-19T03:09:05.508Z,1005.42
2017-10-19T03:10:05.510Z,1005.40
2017-10-19T03:11:26.501Z,1005.41
2017-10-19T03:12:05.488Z,1005.41
2017-10-19T03:13:05.484Z,1005.41
2017-10-19T03:14:05.474Z,1005.45
2017-10-19T03:15:05.469Z,1005.42
2017-10-19T03:16:05.464Z,1005.44
2017-10-19T03:17:26.467Z,1005.45
2017-10-19T03:18:05.453Z,1005.42
2017-10-19T03:19:05.443Z,1005.38
2017-10-19T03:20:05.440Z,1005.38
2017-10-19T03:21:05.435Z,1005.41
2017-10-19T03:22:05.434Z,1005.34
2017-10-19T03:23:26.426Z,1005.35
2017-10-19T03:24:05.418Z,1005.34
2017-10-19T03:25:05.407Z,1005.35
2017-10-19T03:26:05.402Z,1005.41
2017-10-19T03:27:05.404Z,1005.34
2017-10-19T03:28:05.419Z,1005.36
2017-10-19T03:29:26.391Z,1005.35
2017-10-19T03:30:05.384Z,1005.35
2017-10-19T03:31:05.373Z,1005.35
2017-10-19T03:32:05.364Z,1005.34
2017-10-19T03:33:05.360Z,1005.37
2017-10-19T03:34:05.355Z,1005.36
2017-10-19T03:35:26.354Z,1005.35
2017-10-19T03:36:05.340Z,1005.34
2017-10-19T03:37:05.333Z,1005.30
2017-10-19T03:38:05.327Z,1005.24
2017-10-19T03:39:05.318Z,1005.26
2017-10-19T03:40:05.316Z,1005.21
2017-10-19T03:41:26.321Z,1005.21
2017-10-19T03:42:05.305Z,1005.17
2017-10-19T03:43:05.298Z,1005.18
2017-10-19T03:44:05.296Z,1005.13
2017-10-19T03:45:05.290Z,1005.12
2017-10-19T03:46:05.276Z,1005.13
2017-10-19T03:47:26.274Z,1005.12
2017-10-19T03:48:05.265Z,1005.13
2017-10-19T03:49:05.256Z,1005.16
2017-10-19T03:50:05.253Z,1005.16
2017-10-19T03:51:05.243Z,1005.21
2017-10-19T03:52:05.238Z,1005.17
2017-10-19T03:53:26.243Z,1005.15
2017-10-19T03:54:05.224Z,1005.20
2017-10-19T03:55:05.221Z,1005.19
2017-10-19T03:56:05.212Z,1005.23
2017-10-19T03:57:05.210Z,1005.21
2017-10-19T03:58:05.221Z,1005.26
2017-10-19T03:59:26.201Z,1005.23
2017-10-19T04:00:05.193Z,1005.23
2017-10-19T04:01:05.189Z,1005.24
2017-10-19T04:02:05.179Z,1005.26
2017-10-19T04:03:05.173Z,1005.33
2017-10-19T04:04:05.163Z,1005.25
2017-10-19T04:05:26.167Z,1005.30
2017-10-19T04:06:05.158Z,1005.30
2017-10-19T04:07:05.147Z,1005.31
2017-10-19T04:08:05.143Z,1005.30
2017-10-19T04:09:05.136Z,1005.29
2017-10-19T04:10:05.129Z,1005.29
2017-10-19T04:11:26.128Z,1005.34
2017-10-19T04:12:05.115Z,1005.32
2017-10-19T04:13:05.113Z,1005.32
2017-10-19T04:14:05.102Z,1005.29
2017-10-19T04:15:05.098Z,1005.28
2017-10-19T04:16:05.093Z,1005.26
2017-10-19T04:17:26.095Z,1005.28
2017-10-19T04:18:05.083Z,1005.23
2017-10-19T04:19:05.075Z,1005.18
2017-10-19T04:20:05.071Z,1005.18
2017-10-19T04:21:05.062Z,1005.12
2017-10-19T04:22:05.062Z,1005.16
2017-10-19T04:23:26.063Z,1005.15
2017-10-19T04:24:05.068Z,1005.14
2017-10-19T04:25:05.035Z,1005.12
2017-10-19T04:26:05.035Z,1005.12
2017-10-19T04:27:05.024Z,1005.10
2017-10-19T04:28:05.018Z,1005.11
2017-10-19T04:29:26.019Z,1005.13
2017-10-19T04:30:05.008Z,1005.09
2017-10-19T04:31:05.002Z,1005.10
2017-10-19T04:32:04.991Z,1005.15
2017-10-19T04:33:04.987Z,1005.15
2017-10-19T04:34:04.992Z,1005.15
2017-10-19T04:35:25.980Z,1005.15
2017-10-19T04:36:04.971Z,1005.05
2017-10-19T04:37:04.961Z,1005.08
2017-10-19T04:38:04.957Z,1005.05
2017-10-19T04:39:04.950Z,1005.08
2017-10-19T04:40:04.950Z,1005.08
2017-10-19T04:41:25.946Z,1005.12
2017-10-19T04:42:04.931Z,1005.09
2017-10-19T04:43:04.925Z,1005.13
2017-10-19T04:44:04.923Z,1005.14
2017-10-19T04:45:04.912Z,1005.14
2017-10-19T04:46:04.907Z,1005.16
2017-10-19T04:47:25.902Z,1005.16
2017-10-19T04:48:04.939Z,1005.12
2017-10-19T04:49:04.894Z,1005.08
2017-10-19T04:50:04.886Z,1005.08
2017-10-19T04:51:04.885Z,1005.09
2017-10-19T04:52:04.873Z,1005.11
2017-10-19T04:53:25.867Z,1005.16
2017-10-19T04:54:04.857Z,1005.21
2017-10-19T04:55:04.847Z,1005.21
2017-10-19T04:56:04.844Z,1005.22
2017-10-19T04:57:04.832Z,1005.22
2017-10-19T04:58:04.831Z,1005.30
2017-10-19T04:59:25.829Z,1005.31
2017-10-19T05:00:04.816Z,1005.25
2017-10-19T05:01:04.811Z,1005.21
2017-10-19T05:02:04.805Z,1005.20
2017-10-19T05:03:04.815Z,1005.20
2017-10-19T05:04:04.797Z,1005.20
2017-10-19T05:05:25.794Z,1005.15
2017-10-19T05:06:04.785Z,1005.14
2017-10-19T05:07:04.772Z,1005.15
2017-10-19T05:08:04.773Z,1005.15
2017-10-19T05:09:04.762Z,1005.17
2017-10-19T05:10:04.759Z,1005.15
2017-10-19T05:11:25.757Z,1005.15
2017-10-19T05:12:04.741Z,1005.18
2017-10-19T05:13:04.735Z,1005.15
2017-10-19T05:14:04.729Z,1005.13
2017-10-19T05:15:04.724Z,1005.12
2017-10-19T05:16:04.723Z,1005.09
2017-10-19T05:17:25.717Z,1005.00
2017-10-19T05:18:04.704Z,1005.07
2017-10-19T05:19:04.715Z,1005.07
2017-10-19T05:20:04.701Z,1005.04
2017-10-19T05:21:04.693Z,1005.06
2017-10-19T05:22:04.680Z,1005.08
2017-10-19T05:23:25.680Z,1005.07
2017-10-19T05:24:04.671Z,1005.09
2017-10-19T05:25:04.664Z,1005.08
2017-10-19T05:26:04.660Z,1005.08
2017-10-19T05:27:04.647Z,1005.09
2017-10-19T05:28:04.643Z,1005.10
2017-10-19T05:29:25.646Z,1005.01
2017-10-19T05:30:04.633Z,1004.99
2017-10-19T05:31:04.625Z,1004.99
2017-10-19T05:32:04.619Z,1004.99
2017-10-19T05:33:04.611Z,1005.01
2017-10-19T05:34:04.609Z,1005.04
2017-10-19T05:35:25.605Z,1005.04
2017-10-19T05:36:04.593Z,1005.08
2017-10-19T05:37:04.588Z,1005.06
2017-10-19T05:38:04.587Z,1005.06
2017-10-19T05:39:04.575Z,1005.08
2017-10-19T05:40:04.569Z,1005.07
2017-10-19T05:41:25.571Z,1005.10
2017-10-19T05:42:04.554Z,1005.13
2017-10-19T05:43:04.554Z,1005.13
2017-10-19T05:44:04.551Z,1005.16
2017-10-19T05:45:04.577Z,1005.17
2017-10-19T05:46:04.529Z,1005.20
2017-10-19T05:47:25.530Z,1005.23
2017-10-19T05:48:04.517Z,1005.24
2017-10-19T05:49:04.535Z,1005.26
2017-10-19T05:50:04.506Z,1005.29
2017-10-19T05:51:04.497Z,1005.28
2017-10-19T05:52:04.496Z,1005.32
2017-10-19T05:53:25.499Z,1005.34
2017-10-19T05:54:04.484Z,1005.34
2017-10-19T05:55:04.477Z,1005.35
2017-10-19T05:56:04.475Z,1005.39
2017-10-19T05:57:04.463Z,1005.38
2017-10-19T05:58:05.209Z,1005.40
2017-10-19T05:59:25.459Z,1005.41
2017-10-19T06:00:04.449Z,1005.41
2017-10-19T06:01:04.442Z,1005.35
2017-10-19T06:02:04.455Z,1005.34
2017-10-19T06:03:04.429Z,1005.32
2017-10-19T06:04:04.430Z,1005.29
2017-10-19T06:05:25.425Z,1005.31
2017-10-19T06:06:04.413Z,1005.28
2017-10-19T06:07:04.404Z,1005.24
2017-10-19T06:08:04.431Z,1005.20
2017-10-19T06:09:04.398Z,1005.22
2017-10-19T06:10:04.384Z,1005.26
2017-10-19T06:11:25.386Z,1005.30
2017-10-19T06:12:04.376Z,1005.31
2017-10-19T06:13:04.370Z,1005.31
2017-10-19T06:14:04.363Z,1005.32
2017-10-19T06:15:04.362Z,1005.30
2017-10-19T06:16:04.347Z,1005.34
2017-10-19T06:17:25.352Z,1005.35
2017-10-19T06:18:04.340Z,1005.29
2017-10-19T06:19:04.330Z,1005.35
2017-10-19T06:20:04.325Z,1005.34
2017-10-19T06:21:04.316Z,1005.35
2017-10-19T06:22:04.313Z,1005.34
2017-10-19T06:23:25.311Z,1005.35
2017-10-19T06:24:04.298Z,1005.36
2017-10-19T06:25:04.297Z,1005.40
2017-10-19T06:26:04.294Z,1005.39
2017-10-19T06:27:04.278Z,1005.45
2017-10-19T06:28:04.277Z,1005.42
2017-10-19T06:29:25.273Z,1005.42
2017-10-19T06:30:04.283Z,1005.44
2017-10-19T06:31:04.254Z,1005.42
2017-10-19T06:32:04.250Z,1005.45
2017-10-19T06:33:04.245Z,1005.48
2017-10-19T06:34:04.238Z,1005.45
2017-10-19T06:35:25.236Z,1005.55
2017-10-19T06:36:04.223Z,1005.54
2017-10-19T06:37:04.248Z,1005.55
2017-10-19T06:38:04.213Z,1005.55
2017-10-19T06:39:04.216Z,1005.56
2017-10-19T06:40:04.201Z,1005.55
2017-10-19T06:41:25.201Z,1005.57
2017-10-19T06:42:04.188Z,1005.58
2017-10-19T06:43:04.184Z,1005.60
2017-10-19T06:44:04.176Z,1005.59
2017-10-19T06:45:04.172Z,1005.57
2017-10-19T06:46:04.164Z,1005.56
2017-10-19T06:47:25.160Z,1005.50
2017-10-19T06:48:04.150Z,1005.56
2017-10-19T06:49:04.144Z,1005.55
2017-10-19T06:50:04.138Z,1005.49
2017-10-19T06:51:04.132Z,1005.49
2017-10-19T06:52:04.135Z,1005.50
2017-10-19T06:53:25.132Z,1005.48
2017-10-19T06:54:04.115Z,1005.49
2017-10-19T06:55:04.107Z,1005.53
2017-10-19T06:56:04.099Z,1005.52
2017-10-19T06:57:04.094Z,1005.54
2017-10-19T06:58:04.089Z,1005.55
2017-10-19T06:59:25.099Z,1005.55
2017-10-19T07:00:04.082Z,1005.54
2017-10-19T07:01:04.068Z,1005.57
2017-10-19T07:02:04.068Z,1005.60
2017-10-19T07:03:04.065Z,1005.62
2017-10-19T07:04:04.050Z,1005.62
2017-10-19T07:05:25.058Z,1005.56
2017-10-19T07:06:04.038Z,1005.59
2017-10-19T07:07:04.045Z,1005.61
2017-10-19T07:08:04.029Z,1005.64
2017-10-19T07:09:04.023Z,1005.66
2017-10-19T07:10:04.017Z,1005.70
2017-10-19T07:11:25.014Z,1005.74
2017-10-19T07:12:04.002Z,1005.79
2017-10-19T07:13:03.998Z,1005.79
2017-10-19T07:14:03.994Z,1005.78
2017-10-19T07:15:03.990Z,1005.77
2017-10-19T07:16:03.983Z,1005.79
2017-10-19T07:17:24.979Z,1005.77
2017-10-19T07:18:03.965Z,1005.79
2017-10-19T07:19:03.962Z,1005.84
2017-10-19T07:20:03.957Z,1005.80
2017-10-19T07:21:03.947Z,1005.77
2017-10-19T07:22:03.945Z,1005.78
2017-10-19T07:23:24.943Z,1005.76
2017-10-19T07:24:03.933Z,1005.77
2017-10-19T07:25:03.940Z,1005.79
2017-10-19T07:26:03.918Z,1005.83
2017-10-19T07:27:03.919Z,1005.84
2017-10-19T07:28:03.916Z,1005.77
2017-10-19T07:29:24.914Z,1005.80
2017-10-19T07:30:03.911Z,1005.84
2017-10-19T07:31:03.894Z,1005.85
2017-10-19T07:32:03.883Z,1005.83
2017-10-19T07:33:03.881Z,1005.86
2017-10-19T07:34:03.872Z,1005.87
2017-10-19T07:35:24.877Z,1005.87
2017-10-19T07:36:03.862Z,1005.89
2017-10-19T07:37:03.855Z,1005.96
2017-10-19T07:38:03.852Z,1005.99
2017-10-19T07:39:03.846Z,1006.00
2017-10-19T07:40:03.840Z,1006.02
2017-10-19T07:41:24.837Z,1006.02
2017-10-19T07:42:03.831Z,1005.99
2017-10-19T07:43:03.822Z,1006.03
2017-10-19T07:44:03.817Z,1005.98
2017-10-19T07:45:03.811Z,1005.99
2017-10-19T07:46:03.803Z,1006.00
2017-10-19T07:47:24.805Z,1006.02
2017-10-19T07:48:03.796Z,1006.02
2017-10-19T07:49:03.791Z,1006.04
2017-10-19T07:50:03.783Z,1006.04
2017-10-19T07:51:03.777Z,1006.05
2017-10-19T07:52:03.772Z,1006.05
2017-10-19T07:53:24.771Z,1006.04
2017-10-19T07:54:03.766Z,1006.04
2017-10-19T07:55:03.752Z,1006.04
2017-10-19T07:56:03.750Z,1006.05
2017-10-19T07:57:03.743Z,1006.06
2017-10-19T07:58:03.738Z,1006.11
2017-10-19T07:59:24.743Z,1006.11
2017-10-19T08:00:03.724Z,1006.12
2017-10-19T08:01:03.722Z,1006.08
2017-10-19T08:02:03.716Z,1006.11
2017-10-19T08:03:03.710Z,1006.08
2017-10-19T08:04:03.707Z,1006.09
2017-10-19T08:05:24.711Z,1006.14
2017-10-19T08:06:03.692Z,1006.13
2017-10-19T08:07:03.687Z,1006.13
2017-10-19T08:08:03.695Z,1006.11
2017-10-19T08:09:03.678Z,1006.10
2017-10-19T08:10:03.672Z,1006.08
2017-10-19T08:11:24.675Z,1006.11
2017-10-19T08:12:03.664Z,1006.15
2017-10-19T08:13:03.657Z,1006.13
2017-10-19T08:14:03.652Z,1006.19
2017-10-19T08:15:03.647Z,1006.17
2017-10-19T08:16:03.655Z,1006.17
2017-10-19T08:17:24.646Z,1006.16
2017-10-19T08:18:03.632Z,1006.21
2017-10-19T08:19:03.625Z,1006.19
2017-10-19T08:20:03.616Z,1006.15
2017-10-19T08:21:03.625Z,1006.19
2017-10-19T08:22:03.608Z,1006.20
2017-10-19T08:23:24.609Z,1006.21
2017-10-19T08:24:03.595Z,1006.23
2017-10-19T08:25:03.590Z,1006.26
2017-10-19T08:26:03.597Z,1006.26
2017-10-19T08:27:03.580Z,1006.29
2017-10-19T08:28:03.577Z,1006.27
2017-10-19T08:29:24.580Z,1006.27
2017-10-19T08:30:03.565Z,1006.27
2017-10-19T08:31:03.558Z,1006.24
2017-10-19T08:32:03.557Z,1006.18
2017-10-19T08:33:03.555Z,1006.23
2017-10-19T08:34:03.544Z,1006.17
2017-10-19T08:35:24.544Z,1006.16
2017-10-19T08:36:03.532Z,1006.16
2017-10-19T08:37:03.531Z,1006.13
2017-10-19T08:38:03.527Z,1006.12
2017-10-19T08:39:03.517Z,1006.08
2017-10-19T08:40:03.514Z,1006.12
2017-10-19T08:41:24.524Z,1006.11
2017-10-19T08:42:03.510Z,1006.11
2017-10-19T08:43:03.499Z,1006.10
2017-10-19T08:44:03.499Z,1006.13
2017-10-19T08:45:03.490Z,1006.13
2017-10-19T08:46:03.482Z,1006.16
2017-10-19T08:47:24.482Z,1006.20
2017-10-19T08:48:03.476Z,1006.19
2017-10-19T08:49:03.468Z,1006.20
2017-10-19T08:50:03.463Z,1006.23
2017-10-19T08:51:03.462Z,1006.27
2017-10-19T08:52:03.455Z,1006.25
2017-10-19T08:53:24.458Z,1006.24
2017-10-19T08:54:03.443Z,1006.21
2017-10-19T08:55:03.439Z,1006.25
2017-10-19T08:56:03.431Z,1006.25
2017-10-19T08:57:03.430Z,1006.25
2017-10-19T08:58:03.426Z,1006.28
2017-10-19T08:59:24.426Z,1006.28
2017-10-19T09:00:03.415Z,1006.30
2017-10-19T09:01:03.407Z,1006.33
2017-10-19T09:02:03.413Z,1006.30
2017-10-19T09:03:03.398Z,1006.30
2017-10-19T09:04:03.394Z,1006.29
2017-10-19T09:05:24.420Z,1006.26
2017-10-19T09:06:03.380Z,1006.26
2017-10-19T09:07:03.378Z,1006.23
2017-10-19T09:08:03.373Z,1006.24
2017-10-19T09:09:03.370Z,1006.23
2017-10-19T09:10:03.363Z,1006.24
2017-10-19T09:11:24.365Z,1006.23
2017-10-19T09:12:03.351Z,1006.27
2017-10-19T09:13:03.349Z,1006.26
2017-10-19T09:14:03.342Z,1006.28
2017-10-19T09:15:03.340Z,1006.30
2017-10-19T09:16:03.333Z,1006.27
2017-10-19T09:17:24.334Z,1006.28
2017-10-19T09:18:03.340Z,1006.28
2017-10-19T09:19:03.320Z,1006.22
2017-10-19T09:20:03.318Z,1006.23
2017-10-19T09:21:03.312Z,1006.27
2017-10-19T09:22:03.306Z,1006.24
2017-10-19T09:23:24.305Z,1006.22
2017-10-19T09:24:03.296Z,1006.23
2017-10-19T09:25:03.292Z,1006.27
2017-10-19T09:26:03.289Z,1006.25
2017-10-19T09:27:03.288Z,1006.29
2017-10-19T09:28:03.286Z,1006.24
2017-10-19T09:29:24.281Z,1006.22
2017-10-19T09:30:03.268Z,1006.22
2017-10-19T09:31:03.268Z,1006.19
2017-10-19T09:32:03.257Z,1006.20
2017-10-19T09:33:03.258Z,1006.22
2017-10-19T09:34:03.260Z,1006.21
2017-10-19T09:35:24.251Z,1006.24
2017-10-19T09:36:03.241Z,1006.22
2017-10-19T09:37:03.237Z,1006.22
2017-10-19T09:38:03.233Z,1006.17
2017-10-19T09:39:03.228Z,1006.18
2017-10-19T09:40:03.228Z,1006.18
2017-10-19T09:41:24.241Z,1006.18
2017-10-19T09:42:03.219Z,1006.15
2017-10-19T09:43:03.208Z,1006.13
2017-10-19T09:44:03.203Z,1006.17
2017-10-19T09:45:03.197Z,1006.12
2017-10-19T09:46:03.197Z,1006.17
2017-10-19T09:47:24.199Z,1006.11
2017-10-19T09:48:03.191Z,1006.13
2017-10-19T09:49:03.181Z,1006.13
2017-10-19T09:50:03.177Z,1006.08
2017-10-19T09:51:03.175Z,1006.11
2017-10-19T09:52:03.168Z,1006.15
2017-10-19T09:53:24.174Z,1006.14
2017-10-19T09:54:03.158Z,1006.15
2017-10-19T09:55:03.157Z,1006.14
2017-10-19T09:56:03.152Z,1006.14
2017-10-19T09:57:03.148Z,1006.12
2017-10-19T09:58:03.146Z,1006.10
2017-10-19T09:59:24.146Z,1006.10
2017-10-19T10:00:03.152Z,1006.11
2017-10-19T10:01:03.130Z,1006.13
2017-10-19T10:02:03.137Z,1006.14
2017-10-19T10:03:03.124Z,1006.16
2017-10-19T10:04:03.119Z,1006.16
2017-10-19T10:05:24.121Z,1006.16
2017-10-19T10:06:03.131Z,1006.15
2017-10-19T10:07:03.109Z,1006.12
2017-10-19T10:08:03.101Z,1006.13
2017-10-19T10:09:03.097Z,1006.12
2017-10-19T10:10:03.096Z,1006.10
2017-10-19T10:11:24.095Z,1006.06
2017-10-19T10:12:03.095Z,1006.10
2017-10-19T10:13:03.084Z,1006.15
2017-10-19T10:14:03.079Z,1006.06
2017-10-19T10:15:03.075Z,1006.05
2017-10-19T10:16:03.071Z,1006.08
2017-10-19T10:17:24.076Z,1006.10
2017-10-19T10:18:03.063Z,1006.09
2017-10-19T10:19:03.074Z,1006.15
2017-10-19T10:20:03.054Z,1006.15
2017-10-19T10:21:03.053Z,1006.14
2017-10-19T10:22:03.050Z,1006.12
2017-10-19T10:23:24.050Z,1006.11
2017-10-19T10:24:03.041Z,1006.17
2017-10-19T10:25:03.045Z,1006.22
2017-10-19T10:26:03.033Z,1006.19
2017-10-19T10:27:03.033Z,1006.17
2017-10-19T10:28:03.026Z,1006.16
2017-10-19T10:29:24.032Z,1006.22
2017-10-19T10:30:03.018Z,1006.26
2017-10-19T10:31:03.014Z,1006.19
2017-10-19T10:32:03.035Z,1006.11
2017-10-19T10:33:03.009Z,1006.14
2017-10-19T10:34:03.004Z,1006.19
2017-10-19T10:35:24.005Z,1006.27
2017-10-19T10:36:02.996Z,1006.20
2017-10-19T10:37:02.993Z,1006.17
2017-10-19T10:38:02.991Z,1006.07
2017-10-19T10:39:02.987Z,1006.16
2017-10-19T10:40:03.010Z,1006.26
2017-10-19T10:41:23.991Z,1006.25
2017-10-19T10:42:02.977Z,1006.23
2017-10-19T10:43:02.972Z,1006.21
2017-10-19T10:44:02.969Z,1006.10
2017-10-19T10:45:02.964Z,1006.11
2017-10-19T10:46:02.963Z,1006.18
2017-10-19T10:47:24.739Z,1006.17
2017-10-19T10:48:02.987Z,1006.12
2017-10-19T10:49:02.952Z,1006.08
2017-10-19T10:50:02.954Z,1006.07
2017-10-19T10:51:02.948Z,1006.05
2017-10-19T10:52:02.948Z,1006.04
2017-10-19T10:53:23.946Z,1006.09
2017-10-19T10:54:02.938Z,1006.09
2017-10-19T10:55:02.931Z,1006.06
2017-10-19T10:56:02.937Z,1006.06
2017-10-19T10:57:02.930Z,1006.01
2017-10-19T10:58:02.928Z,1006.03
2017-10-19T10:59:23.929Z,1006.05
2017-10-19T11:00:02.954Z,1006.04
2017-10-19T11:01:02.917Z,1005.99
2017-10-19T11:02:02.915Z,1005.95
2017-10-19T11:03:02.909Z,1005.97
2017-10-19T11:04:02.916Z,1005.96
2017-10-19T11:05:23.926Z,1005.97
2017-10-19T11:06:02.903Z,1005.98
2017-10-19T11:07:02.898Z,1005.97
2017-10-19T11:08:02.896Z,1005.96
2017-10-19T11:09:02.894Z,1005.90
2017-10-19T11:10:02.894Z,1005.94
2017-10-19T11:11:23.897Z,1005.95
2017-10-19T11:12:02.890Z,1005.98
2017-10-19T11:13:02.896Z,1005.94
2017-10-19T11:14:02.888Z,1005.74
2017-10-19T11:15:02.882Z,1005.87
2017-10-19T11:16:02.877Z,1005.97
2017-10-19T11:17:23.945Z,1005.95
2017-10-19T11:18:02.875Z,1005.65
2017-10-19T11:19:02.873Z,1005.59
2017-10-19T11:20:02.883Z,1005.55
2017-10-19T11:21:02.871Z,1005.53
2017-10-19T11:22:02.870Z,1005.55
2017-10-19T11:23:23.875Z,1005.56
2017-10-19T11:24:02.867Z,1005.57
2017-10-19T11:25:02.875Z,1005.53
2017-10-19T11:26:02.864Z,1005.52
2017-10-19T11:27:02.861Z,1005.54
2017-10-19T11:28:02.860Z,1005.51
2017-10-19T11:29:23.868Z,1005.48
2017-10-19T11:30:02.856Z,1005.50
2017-10-19T11:31:02.853Z,1005.67
2017-10-19T11:32:02.853Z,1005.78
2017-10-19T11:33:02.848Z,1005.75
2017-10-19T11:34:02.851Z,1005.79
2017-10-19T11:35:23.853Z,1005.74
2017-10-19T11:36:02.844Z,1005.67
2017-10-19T11:37:02.843Z,1005.67
2017-10-19T11:38:02.844Z,1005.69
2017-10-19T11:39:02.839Z,1005.63
2017-10-19T11:40:02.837Z,1005.63
2017-10-19T11:41:23.848Z,1005.59
2017-10-19T11:42:02.837Z,1005.60
2017-10-19T11:43:02.838Z,1005.58
2017-10-19T11:44:02.831Z,1005.57
2017-10-19T11:45:02.837Z,1005.62
2017-10-19T11:46:02.830Z,1005.53
2017-10-19T11:47:23.847Z,1005.52
2017-10-19T11:48:02.829Z,1005.53
2017-10-19T11:49:02.833Z,1005.52
2017-10-19T11:50:02.842Z,1005.50
2017-10-19T11:51:02.838Z,1005.43
2017-10-19T11:52:02.834Z,1005.44
2017-10-19T11:53:23.841Z,1005.38
2017-10-19T11:54:02.829Z,1005.36
2017-10-19T11:55:02.840Z,1005.32
2017-10-19T11:56:02.831Z,1005.29
2017-10-19T11:57:02.845Z,1005.20
2017-10-19T11:58:02.834Z,1005.20
2017-10-19T11:59:23.838Z,1005.17
2017-10-19T12:00:02.832Z,1005.17
2017-10-19T12:01:02.849Z,1005.12
2017-10-19T12:02:02.833Z,1005.11
2017-10-19T12:03:02.834Z,1005.12
2017-10-19T12:04:02.824Z,1005.06
2017-10-19T12:05:23.840Z,1005.02